Time;durP1;ratioP1;P1;durP2;ratioP2;P2;SDS_P1;SDS_P2;PMS_P1;PMS_P2;Temp;Humidity;BMP_temperature;BMP_pressure;BME280_temperature;BME280_humidity;BME280_pressure;Samples;Min_cycle;Max_cycle;Signal;HPM_P1;HPM_P2
2024/04/16 00:00:40;;;;;;;;;18.75;14.50;;;;;-143.90;100.00;73896.84;5284332;26;99641;-73
2024/04/16 00:03:08;;;;;;;;;18.75;17.50;;;;;-143.90;100.00;73896.84;5287442;26;99731;-74
2024/04/16 00:05:35;;;;;;;;;23.75;19.50;;;;;-143.90;100.00;73890.63;5275064;26;99515;-73
2024/04/16 00:08:02;;;;;;;;;25.00;20.00;;;;;-143.90;100.00;73900.97;5267589;26;98311;-73
2024/04/16 00:10:29;;;;;;;;;26.75;22.25;;;;;-143.90;100.00;73882.38;5285610;26;99594;-73
2024/04/16 00:12:56;;;;;;;;;25.75;20.75;;;;;-143.90;100.00;73884.44;5282055;26;104610;-76
2024/04/16 00:15:24;;;;;;;;;26.25;22.00;;;;;-143.90;100.00;73884.44;5285162;26;98442;-74
2024/04/16 00:17:51;;;;;;;;;33.25;26.75;;;;;-143.90;100.00;73884.44;5272442;26;98508;-73
2024/04/16 00:20:18;;;;;;;;;31.00;27.25;;;;;-143.90;100.00;73878.25;5282777;26;100047;-73
2024/04/16 00:22:44;;;;;;;;;25.75;19.75;;;;;-143.90;100.00;73882.38;5285191;26;99459;-74
2024/04/16 00:25:11;;;;;;;;;28.00;22.50;;;;;-143.90;100.00;73890.63;5282516;26;99736;-74
2024/04/16 00:27:38;;;;;;;;;30.75;28.50;;;;;-143.90;100.00;73898.91;5274718;26;98300;-73
2024/04/16 00:30:06;;;;;;;;;29.50;25.50;;;;;-143.90;100.00;73898.91;5279712;26;98149;-73
2024/04/16 00:32:32;;;;;;;;;32.25;28.75;;;;;-143.90;100.00;73903.03;5276428;26;99754;-73
2024/04/16 00:34:59;;;;;;;;;25.00;23.25;;;;;-143.90;100.00;73905.09;5284691;26;97839;-73
2024/04/16 00:37:26;;;;;;;;;26.75;23.25;;;;;-143.90;100.00;73900.97;5289866;26;98486;-73
2024/04/16 00:39:53;;;;;;;;;28.75;25.00;;;;;-143.90;100.00;73905.09;5269920;26;99592;-75
2024/04/16 00:42:20;;;;;;;;;30.25;25.00;;;;;-143.90;100.00;73909.25;5277305;26;99390;-74
2024/04/16 00:44:46;;;;;;;;;24.25;20.00;;;;;-143.90;100.00;73903.03;5277793;26;98205;-73
2024/04/16 00:47:16;;;;;;;;;21.25;19.50;;;;;-143.90;100.00;73898.91;5278613;26;101550;-74
2024/04/16 00:49:44;;;;;;;;;18.25;16.75;;;;;-143.90;100.00;73903.03;5273926;26;98266;-74
2024/04/16 00:52:11;;;;;;;;;16.00;13.75;;;;;-143.90;100.00;73907.16;5285185;26;99739;-74
2024/04/16 00:54:40;;;;;;;;;11.75;10.00;;;;;-143.90;100.00;73892.69;5283202;26;98351;-73
2024/04/16 00:57:07;;;;;;;;;9.50;8.50;;;;;-143.90;100.00;73890.63;5273266;26;98167;-73
2024/04/16 00:59:36;;;;;;;;;6.75;6.75;;;;;-143.90;100.00;73869.97;5278424;26;98369;-73
2024/04/16 01:02:03;;;;;;;;;6.50;5.75;;;;;-143.90;100.00;73861.69;5271951;25;101636;-74
2024/04/16 01:04:30;;;;;;;;;8.25;6.00;;;;;-143.90;100.00;73855.50;5275082;26;98262;-73
2024/04/16 01:06:57;;;;;;;;;4.75;4.75;;;;;-143.90;100.00;73845.16;5274060;26;99795;-73
2024/04/16 01:09:24;;;;;;;;;5.00;4.00;;;;;-143.90;100.00;73828.63;5279584;26;98470;-73
2024/04/16 01:11:56;;;;;;;;;5.25;5.00;;;;;-143.90;100.00;73818.31;5268866;26;99760;-73
2024/04/16 01:14:23;;;;;;;;;3.50;3.50;;;;;-143.90;100.00;73812.09;5280679;26;98771;-73
2024/04/16 01:16:50;;;;;;;;;4.25;3.75;;;;;-143.90;100.00;73795.56;5282744;26;98215;-73
2024/04/16 01:19:17;;;;;;;;;4.00;4.00;;;;;-143.90;100.00;73783.16;5283272;26;101457;-73
2024/04/16 01:21:43;;;;;;;;;5.00;4.00;;;;;-143.90;100.00;73766.63;5271645;26;103509;-74
2024/04/16 01:24:10;;;;;;;;;4.75;4.00;;;;;-143.90;100.00;73768.69;5287316;26;98405;-74
2024/04/16 01:26:37;;;;;;;;;5.75;5.00;;;;;-143.90;100.00;73766.63;5281233;26;98393;-74
2024/04/16 01:29:04;;;;;;;;;4.00;3.50;;;;;-143.90;100.00;73766.63;5284132;26;98234;-75
2024/04/16 01:31:31;;;;;;;;;3.00;2.00;;;;;-143.90;100.00;73770.78;5283464;26;99428;-73
2024/04/16 01:33:58;;;;;;;;;2.75;2.75;;;;;-143.90;100.00;73756.31;5274140;26;97834;-73
2024/04/16 01:36:25;;;;;;;;;3.00;3.00;;;;;-143.90;100.00;73754.25;5279331;26;99441;-73
2024/04/16 01:38:52;;;;;;;;;3.25;3.25;;;;;-143.90;100.00;73754.25;5283705;26;98123;-74
2024/04/16 01:41:19;;;;;;;;;4.75;4.75;;;;;-143.90;100.00;73758.38;5286325;26;99725;-73
2024/04/16 01:43:46;;;;;;;;;5.75;4.75;;;;;-143.90;100.00;73758.38;5272687;26;98828;-73
2024/04/16 01:46:12;;;;;;;;;3.75;3.75;;;;;-143.90;100.00;73756.31;5281020;26;98831;-73
2024/04/16 01:48:39;;;;;;;;;2.00;2.00;;;;;-143.90;100.00;73741.84;5279753;26;98446;-73
2024/04/16 01:51:06;;;;;;;;;3.25;3.25;;;;;-143.90;100.00;73745.97;5280884;26;99824;-73
2024/04/16 01:53:33;;;;;;;;;4.00;3.00;;;;;-143.90;100.00;73737.69;5279891;26;97894;-73
2024/04/16 01:56:00;;;;;;;;;2.00;2.00;;;;;-143.90;100.00;73735.63;5279337;26;98048;-73
2024/04/16 01:58:26;;;;;;;;;3.75;3.75;;;;;-143.90;100.00;73735.63;5289790;26;98554;-74
2024/04/16 02:01:00;;;;;;;;;5.00;4.50;;;;;-143.90;100.00;73741.84;5278544;26;99898;-73
2024/04/16 02:03:27;;;;;;;;;5.00;4.00;;;;;-143.90;100.00;73758.38;5283950;26;97787;-73
2024/04/16 02:05:57;;;;;;;;;4.75;4.00;;;;;-143.90;100.00;73754.25;5274109;26;102291;-73
2024/04/16 02:08:25;;;;;;;;;3.25;3.25;;;;;-143.90;100.00;73754.25;5280935;26;98766;-74
2024/04/16 02:10:53;;;;;;;;;4.00;4.00;;;;;-143.90;100.00;73764.56;5286289;26;99814;-73
2024/04/16 02:13:20;;;;;;;;;5.00;5.00;;;;;-143.90;100.00;73774.91;5285089;26;97895;-73
2024/04/16 02:15:47;;;;;;;;;4.50;4.00;;;;;-143.90;100.00;73770.78;5269500;26;98676;-72
2024/04/16 02:18:14;;;;;;;;;5.00;4.50;;;;;-143.90;100.00;73779.03;5283465;26;98080;-72
2024/04/16 02:20:41;;;;;;;;;3.75;3.75;;;;;-143.90;100.00;73766.63;5286583;26;99905;-72
2024/04/16 02:23:08;;;;;;;;;2.75;2.00;;;;;-143.90;100.00;73754.25;5279765;26;99671;-73
2024/04/16 02:25:34;;;;;;;;;1.50;1.00;;;;;-143.90;100.00;73758.38;5264153;26;104045;-73
2024/04/16 02:28:02;;;;;;;;;4.75;3.75;;;;;-143.90;100.00;73766.63;5280880;26;99674;-72
2024/04/16 02:30:30;;;;;;;;;2.00;2.00;;;;;-143.90;100.00;73774.91;5283084;25;99726;-73
2024/04/16 02:32:56;;;;;;;;;2.50;2.50;;;;;-143.90;100.00;73774.91;5287936;26;97658;-75
2024/04/16 02:35:23;;;;;;;;;3.00;2.75;;;;;-143.90;100.00;73774.91;5288087;26;97992;-72
2024/04/16 02:37:50;;;;;;;;;3.00;3.00;;;;;-143.90;100.00;73779.03;5275216;26;97876;-72
2024/04/16 02:40:17;;;;;;;;;2.00;2.00;;;;;-143.90;100.00;73779.03;5284687;26;99886;-72
2024/04/16 02:42:44;;;;;;;;;2.00;2.00;;;;;-143.90;100.00;73772.84;5284976;26;98482;-72
2024/04/16 02:45:10;;;;;;;;;3.00;2.75;;;;;-143.90;100.00;73766.63;5287672;26;98342;-72
2024/04/16 02:47:37;;;;;;;;;3.00;3.00;;;;;-143.90;100.00;73772.84;5283933;26;98932;-72
2024/04/16 02:50:04;;;;;;;;;2.00;1.00;;;;;-143.90;100.00;73776.97;5283077;26;103029;-73
2024/04/16 02:52:31;;;;;;;;;2.00;2.00;;;;;-143.90;100.00;73779.03;5286682;26;98886;-72
2024/04/16 02:54:58;;;;;;;;;2.00;2.00;;;;;-143.90;100.00;73791.44;5284585;26;98510;-73
2024/04/16 02:57:25;;;;;;;;;3.00;1.50;;;;;-143.90;100.00;73799.69;5287197;26;97969;-73
2024/04/16 02:59:52;;;;;;;;;1.50;1.50;;;;;-143.90;100.00;73805.91;5269529;26;99865;-73
2024/04/16 03:02:18;;;;;;;;;1.25;1.25;;;;;-143.90;100.00;73805.91;5284525;26;98365;-73
2024/04/16 03:04:48;;;;;;;;;1.00;1.00;;;;;-143.90;100.00;73812.09;5285519;26;98302;-73
2024/04/16 03:07:15;;;;;;;;;1.75;1.00;;;;;-143.90;100.00;73820.38;5286596;26;98258;-73
2024/04/16 03:09:42;;;;;;;;;1.75;1.00;;;;;-143.90;100.00;73828.63;5275683;26;101517;-73
2024/04/16 03:12:08;;;;;;;;;2.00;2.00;;;;;-143.90;100.00;73841.03;5285840;26;103618;-73
2024/04/16 03:14:35;;;;;;;;;4.00;4.00;;;;;-143.90;100.00;73845.16;5277608;26;98334;-73
2024/04/16 03:17:04;;;;;;;;;4.00;3.00;;;;;-143.90;100.00;73849.31;5284658;26;98404;-72
2024/04/16 03:19:31;;;;;;;;;2.75;2.75;;;;;-143.90;100.00;73851.38;5283398;26;99721;-71
2024/04/16 03:21:58;;;;;;;;;2.00;1.00;;;;;-143.90;100.00;73857.56;5279348;26;98506;-73
2024/04/16 03:24:25;;;;;;;;;2.50;2.00;;;;;-143.90;100.00;73863.78;5284826;26;99647;-73
2024/04/16 03:26:51;;;;;;;;;1.50;1.50;;;;;-143.90;100.00;73894.78;5278745;26;98715;-73
2024/04/16 03:29:18;;;;;;;;;1.00;1.00;;;;;-143.90;100.00;73903.03;5283675;26;99845;-73
2024/04/16 03:31:45;;;;;;;;;1.50;1.50;;;;;-143.90;100.00;73909.25;5270009;26;99061;-73
2024/04/16 03:34:12;;;;;;;;;1.00;1.00;;;;;-143.90;100.00;73911.31;5280358;26;103133;-73
2024/04/16 03:36:39;;;;;;;;;2.00;1.75;;;;;-143.90;100.00;73919.56;5287134;26;100522;-73
2024/04/16 03:39:05;;;;;;;;;2.00;2.00;;;;;-143.90;100.00;73938.19;5274780;26;100595;-73
2024/04/16 03:41:32;;;;;;;;;1.75;1.75;;;;;-143.90;100.00;73931.97;5285368;26;99420;-72
2024/04/16 03:43:59;;;;;;;;;3.00;1.00;;;;;-143.90;100.00;73936.09;5282966;26;98397;-72
2024/04/16 03:46:26;;;;;;;;;1.00;1.00;;;;;-143.90;100.00;73936.09;5283130;26;98368;-72
2024/04/16 03:48:53;;;;;;;;;1.25;1.00;;;;;-143.90;100.00;73946.44;5277557;26;99830;-73
2024/04/16 03:51:20;;;;;;;;;2.25;2.00;;;;;-143.90;100.00;73948.50;5283246;26;98249;-73
2024/04/16 03:53:47;;;;;;;;;1.00;1.00;;;;;-143.90;100.00;73950.56;5275440;26;98571;-73
2024/04/16 03:56:14;;;;;;;;;2.00;2.00;;;;;-143.90;100.00;73969.19;5278505;26;98354;-73
2024/04/16 03:59:04;;;;;;;;;3.25;3.00;;;;;-143.90;100.00;73985.72;5280878;26;99781;-73
2024/04/16 04:01:31;;;;;;;;;3.25;2.25;;;;;-143.90;100.00;73993.97;5276367;26;102667;-72
2024/04/16 04:03:58;;;;;;;;;4.00;3.25;;;;;-143.90;100.00;74002.25;5274843;26;98355;-72
2024/04/16 04:06:25;;;;;;;;;2.75;2.75;;;;;-143.90;100.00;74010.50;5283594;26;99919;-71
2024/04/16 04:08:52;;;;;;;;;1.25;1.00;;;;;-143.90;100.00;74039.44;5285144;26;99829;-72
2024/04/16 04:11:19;;;;;;;;;0.75;0.75;;;;;-143.90;99.85;74055.97;5280379;26;98616;-72
2024/04/16 04:13:46;;;;;;;;;1.00;1.00;;;;;-143.90;100.00;74086.97;5270998;26;97896;-72
2024/04/16 04:16:14;;;;;;;;;1.00;1.00;;;;;-143.90;99.10;74124.19;5276206;26;99578;-73
2024/04/16 04:18:40;;;;;;;;;1.00;1.00;;;;;-143.90;100.00;74165.53;5279281;26;99985;-72
2024/04/16 04:21:07;;;;;;;;;1.25;1.25;;;;;-143.90;100.00;74167.59;5279361;26;98302;-72
2024/04/16 04:23:34;;;;;;;;;1.00;1.00;;;;;-143.90;100.00;74186.19;5275867;26;102453;-73
2024/04/16 04:26:01;;;;;;;;;2.75;2.00;;;;;-143.90;100.00;74200.66;5278064;26;100006;-73
2024/04/16 04:28:28;;;;;;;;;1.50;1.50;;;;;-143.90;100.00;74221.31;5279550;26;104505;-72
2024/04/16 04:30:55;;;;;;;;;1.25;1.25;;;;;-143.90;100.00;74217.19;5280859;26;98388;-73
2024/04/16 04:33:24;;;;;;;;;2.25;1.75;;;;;-143.90;100.00;74225.47;5282152;26;98171;-72
2024/04/16 04:35:51;;;;;;;;;2.00;2.00;;;;;-143.90;100.00;74239.94;5276422;26;97887;-73
2024/04/16 04:38:18;;;;;;;;;2.00;2.00;;;;;-143.90;100.00;74262.66;5285524;26;100225;-73
2024/04/16 04:40:44;;;;;;;;;2.00;2.00;;;;;-143.90;100.00;74279.22;5255157;26;98428;-72
2024/04/16 04:43:11;;;;;;;;;11.25;10.00;;;;;-143.90;100.00;74279.22;5277383;26;98291;-72
2024/04/16 04:45:38;;;;;;;;;16.75;14.50;;;;;-143.90;100.00;74283.34;5276921;26;98667;-72
2024/04/16 04:48:05;;;;;;;;;9.50;8.50;;;;;-143.90;100.00;74285.41;5268875;26;99774;-71
2024/04/16 04:50:32;;;;;;;;;11.50;10.25;;;;;-143.90;100.00;74308.13;5276196;26;98123;-72
2024/04/16 04:53:00;;;;;;;;;3.00;3.00;;;;;-143.90;100.00;74341.22;5272595;26;98001;-71
2024/04/16 04:55:27;;;;;;;;;2.50;2.50;;;;;-143.90;98.74;74370.16;5269457;26;98447;-72
2024/04/16 04:57:56;;;;;;;;;2.25;2.25;;;;;-143.90;98.79;74394.94;5267735;26;99765;-71
2024/04/16 05:00:23;;;;;;;;;1.00;1.00;;;;;-143.90;99.14;74399.09;5272075;26;98473;-72
2024/04/16 05:02:50;;;;;;;;;2.25;2.00;;;;;-143.90;98.37;74413.56;5273057;26;97895;-72
2024/04/16 05:05:17;;;;;;;;;1.25;1.25;;;;;-143.90;99.84;74411.50;5280891;26;98322;-72
2024/04/16 05:07:44;;;;;;;;;2.00;1.00;;;;;-143.90;98.24;74432.16;5276382;26;99822;-71
2024/04/16 05:10:11;;;;;;;;;4.25;4.25;;;;;-143.90;99.25;74419.75;5252291;25;99809;-72
2024/04/16 05:12:37;;;;;;;;;10.00;9.00;;;;;-143.90;98.63;74432.16;5278402;26;98744;-73
2024/04/16 05:15:05;;;;;;;;;7.50;6.50;;;;;-143.90;98.80;74423.88;5282998;26;103368;-72
2024/04/16 05:17:31;;;;;;;;;5.75;5.75;;;;;-143.90;98.51;74425.97;5274412;26;103410;-72
2024/04/16 05:19:58;;;;;;;;;3.00;3.00;;;;;-143.90;99.65;74411.50;5273556;25;99306;-73
2024/04/16 05:22:25;;;;;;;;;1.00;0.50;;;;;-143.90;100.00;74423.88;5280311;26;98359;-73
2024/04/16 05:24:52;;;;;;;;;1.00;1.00;;;;;-143.90;97.01;74415.63;5276125;26;98246;-72
2024/04/16 05:27:19;;;;;;;;;1.00;1.00;;;;;-143.90;98.48;74415.63;5276462;26;99744;-73
2024/04/16 05:29:45;;;;;;;;;1.00;0.00;;;;;-143.90;97.27;74444.56;5265652;26;98394;-73
2024/04/16 05:32:14;;;;;;;;;1.00;1.00;;;;;-143.90;97.67;74450.75;5279017;26;98626;-73
2024/04/16 05:34:41;;;;;;;;;1.00;1.00;;;;;-143.90;96.51;74461.09;5281772;26;98319;-73
2024/04/16 05:37:08;;;;;;;;;1.00;1.00;;;;;-143.90;94.52;74473.50;5252711;26;102704;-73
2024/04/16 05:39:35;;;;;;;;;0.25;0.25;;;;;-143.90;94.12;74483.84;5283284;26;97888;-74
2024/04/16 05:42:02;;;;;;;;;2.25;1.00;;;;;-143.90;93.14;74475.56;5265089;26;98074;-73
2024/04/16 05:44:29;;;;;;;;;1.00;1.00;;;;;-143.90;91.58;74477.63;5294666;26;98297;-73
2024/04/16 05:46:55;;;;;;;;;1.00;1.00;;;;;-143.90;86.72;74481.78;5277472;26;99706;-73
2024/04/16 05:49:22;;;;;;;;;1.00;1.00;;;;;-143.90;81.22;74502.44;5276033;26;98007;-73
2024/04/16 05:51:49;;;;;;;;;0.00;0.00;;;;;-143.90;78.15;74481.78;5261685;26;97787;-74
2024/04/16 05:54:16;;;;;;;;;1.25;1.00;;;;;-143.90;76.94;74467.31;5275167;26;98326;-72
2024/04/16 05:56:42;;;;;;;;;1.00;0.00;;;;;-143.90;77.42;74498.31;5268903;26;104475;-73
2024/04/16 05:59:09;;;;;;;;;1.00;1.00;;;;;-143.90;75.53;74527.25;5276812;26;98323;-73
2024/04/16 06:01:36;;;;;;;;;0.50;0.50;;;;;-143.90;75.54;74512.78;5279648;26;98260;-73
2024/04/16 06:04:03;;;;;;;;;0.75;0.00;;;;;-143.90;75.39;74506.56;5270176;26;101334;-72
2024/04/16 06:06:30;;;;;;;;;0.50;0.50;;;;;-143.90;75.67;74506.56;5273350;26;99766;-74
2024/04/16 06:08:57;;;;;;;;;1.25;1.00;;;;;-143.90;77.59;74535.50;5280538;26;98390;-74
2024/04/16 06:11:24;;;;;;;;;1.00;1.00;;;;;-143.90;76.45;74587.19;5278798;26;98124;-73
2024/04/16 06:13:50;;;;;;;;;1.75;1.00;;;;;-143.90;75.99;74593.38;5271391;26;98129;-72
2024/04/16 06:16:17;;;;;;;;;1.00;1.00;;;;;-143.90;77.09;74607.84;5285287;26;99791;-72
2024/04/16 06:18:44;;;;;;;;;2.25;1.00;;;;;-143.90;76.37;74605.78;5278976;26;98080;-73
2024/04/16 06:21:11;;;;;;;;;0.00;0.00;;;;;-143.90;77.40;74593.38;5283400;26;98464;-73
2024/04/16 06:23:38;;;;;;;;;0.00;0.00;;;;;-143.90;78.63;74593.38;5283779;26;98379;-73
2024/04/16 06:26:08;;;;;;;;;2.00;2.00;;;;;-143.90;80.51;74614.06;5277747;26;100057;-73
2024/04/16 06:28:36;;;;;;;;;1.00;1.00;;;;;-143.90;80.55;74601.66;5272616;26;98037;-73
2024/04/16 06:31:03;;;;;;;;;3.00;3.00;;;;;-143.90;76.24;74543.78;5282075;26;98339;-73
2024/04/16 06:33:31;;;;;;;;;2.50;2.00;;;;;-143.90;74.63;74518.97;5276846;26;97857;-73
2024/04/16 06:35:58;;;;;;;;;3.75;3.25;;;;;-143.90;74.18;74502.44;5266794;26;99789;-73
2024/04/16 06:38:25;;;;;;;;;4.75;4.50;;;;;-143.90;75.64;74504.50;5277721;25;98214;-73
2024/04/16 06:40:52;;;;;;;;;5.50;4.00;;;;;-143.90;75.79;74521.03;5266767;26;98152;-73
2024/04/16 06:43:18;;;;;;;;;7.25;6.50;;;;;-143.90;76.01;74504.50;5284063;26;98391;-73
2024/04/16 06:45:45;;;;;;;;;10.00;6.00;;;;;-143.90;76.99;74514.84;5273221;26;108014;-73
2024/04/16 06:48:12;;;;;;;;;11.00;8.75;;;;;-143.90;76.22;74523.09;5309084;26;98401;-72
2024/04/16 06:50:45;;;;;;;;;9.25;8.00;;;;;-143.90;76.43;74510.72;5273822;26;98560;-72
2024/04/16 06:53:12;;;;;;;;;7.00;7.00;;;;;-143.90;75.82;74527.25;5280120;26;98318;-72
2024/04/16 06:55:39;;;;;;;;;7.00;6.00;;;;;-143.90;77.41;74531.38;5275418;25;100038;-74
2024/04/16 06:58:07;;;;;;;;;6.50;3.75;;;;;-143.90;74.86;74539.66;5274568;26;98121;-73
2024/04/16 07:00:34;;;;;;;;;5.25;4.50;;;;;-143.90;73.93;74512.78;5283554;26;97965;-73
2024/04/16 07:03:01;;;;;;;;;5.50;4.00;;;;;-143.90;74.11;74494.16;5282429;26;98357;-73
2024/04/16 07:05:29;;;;;;;;;3.50;3.00;;;;;-143.90;75.73;74459.03;5277120;26;99747;-74
2024/04/16 07:07:56;;;;;;;;;3.00;2.25;;;;;-143.90;71.58;74454.91;5264142;26;98578;-73
2024/04/16 07:10:22;;;;;;;;;2.00;2.00;;;;;-143.90;73.45;74452.84;5275778;26;98066;-72
2024/04/16 07:12:49;;;;;;;;;3.25;2.00;;;;;-143.90;73.75;74454.91;5288936;26;97922;-73
2024/04/16 07:15:16;;;;;;;;;2.75;2.75;;;;;-143.90;73.91;74411.50;5270893;26;106914;-74
2024/04/16 07:17:43;;;;;;;;;4.00;2.00;;;;;-143.90;71.64;74347.41;5268648;26;97898;-73
2024/04/16 07:20:10;;;;;;;;;2.00;2.00;;;;;-143.90;71.47;74316.41;5280414;26;101034;-74
2024/04/16 07:22:37;;;;;;;;;3.25;3.25;;;;;-143.90;69.75;74301.94;5285968;26;98555;-74
2024/04/16 07:25:04;;;;;;;;;2.50;2.00;;;;;-143.90;71.34;74266.81;5273347;26;99977;-73
2024/04/16 07:27:31;;;;;;;;;1.75;1.75;;;;;-143.90;69.75;74211.00;5278503;26;99685;-73
2024/04/16 07:29:57;;;;;;;;;4.50;3.50;;;;;-143.90;64.67;74182.06;5274234;26;98651;-72
2024/04/16 07:32:24;;;;;;;;;2.00;2.00;;;;;-143.90;66.18;74198.59;5275338;26;98647;-73
2024/04/16 07:34:51;;;;;;;;;0.00;0.00;;;;;-143.90;67.74;74215.13;5271764;26;99799;-72
2024/04/16 07:37:21;;;;;;;;;2.50;1.50;;;;;-143.90;67.80;74213.06;5271186;26;98213;-73
2024/04/16 07:39:48;;;;;;;;;2.00;2.00;;;;;-143.90;67.21;74221.31;5273279;26;98490;-72
2024/04/16 07:42:15;;;;;;;;;3.00;2.75;;;;;-143.90;68.73;74237.88;5272498;26;97965;-73
2024/04/16 07:44:41;;;;;;;;;2.00;2.00;;;;;-143.90;66.78;74262.66;5277635;26;99776;-73
2024/04/16 07:47:08;;;;;;;;;3.00;2.25;;;;;-143.90;69.80;74301.94;5280897;26;98344;-72
2024/04/16 07:49:35;;;;;;;;;4.00;4.00;;;;;-143.90;69.68;74328.81;5276365;26;98327;-73
2024/04/16 07:52:02;;;;;;;;;3.00;3.00;;;;;-143.90;70.24;74349.47;5271673;26;97959;-73
2024/04/16 07:54:29;;;;;;;;;2.75;2.75;;;;;-143.90;70.64;74359.81;5278057;26;102477;-73
2024/04/16 07:56:56;;;;;;;;;2.00;2.00;;;;;-143.90;70.61;74359.81;5278483;26;98110;-73
2024/04/16 07:59:23;;;;;;;;;2.75;1.25;;;;;-143.90;70.57;74355.69;5282115;26;103230;-72
2024/04/16 08:01:50;;;;;;;;;2.25;1.50;;;;;-143.90;69.87;74353.63;5270517;26;98042;-72
2024/04/16 08:04:17;;;;;;;;;3.50;3.00;;;;;-143.90;68.13;74349.47;5274584;25;99825;-72
2024/04/16 08:06:45;;;;;;;;;2.50;2.50;;;;;-143.90;67.39;74370.16;5278240;26;98083;-73
2024/04/16 08:09:12;;;;;;;;;3.25;3.00;;;;;-143.90;67.70;74372.22;5281449;26;98337;-73
2024/04/16 08:11:39;;;;;;;;;2.00;1.00;;;;;-143.90;68.54;74357.75;5280030;26;98357;-73
2024/04/16 08:14:05;;;;;;;;;1.00;1.00;;;;;-143.90;68.80;74343.28;5255102;26;99856;-73
2024/04/16 08:16:35;;;;;;;;;2.00;2.00;;;;;-143.90;69.84;74316.41;5270339;26;97922;-73
2024/04/16 08:19:01;;;;;;;;;2.75;2.00;;;;;-143.90;69.41;74283.34;5272577;26;98140;-73
2024/04/16 08:21:28;;;;;;;;;3.00;2.00;;;;;-143.90;67.66;74293.66;5282303;26;97934;-72
2024/04/16 08:23:55;;;;;;;;;2.00;2.00;;;;;-143.90;67.75;74304.00;5268830;26;99720;-73
2024/04/16 08:26:22;;;;;;;;;2.25;1.75;;;;;-143.90;65.73;74316.41;5274508;26;98300;-74
2024/04/16 08:28:49;;;;;;;;;3.00;2.00;;;;;-143.90;66.20;74316.41;5279740;26;98382;-73
2024/04/16 08:31:16;;;;;;;;;2.00;2.00;;;;;-143.90;66.26;74308.13;5280375;26;97829;-73
2024/04/16 08:33:43;;;;;;;;;2.50;2.00;;;;;-143.90;65.61;74283.34;5270358;26;99676;-73
2024/04/16 08:36:10;;;;;;;;;3.00;3.00;;;;;-143.90;62.60;74301.94;5271729;26;98337;-73
2024/04/16 08:38:37;;;;;;;;;4.75;3.25;;;;;-143.90;63.75;74328.81;5275780;26;99455;-73
2024/04/16 08:41:04;;;;;;;;;1.25;1.25;;;;;-143.90;64.89;74320.53;5282915;26;98584;-73
2024/04/16 08:43:34;;;;;;;;;3.00;2.00;;;;;-143.90;65.86;74324.69;5285497;26;100034;-72
2024/04/16 08:46:02;;;;;;;;;2.00;2.00;;;;;-143.90;66.37;74320.53;5268124;26;98074;-73
2024/04/16 08:48:29;;;;;;;;;1.00;1.00;;;;;-143.90;66.73;74320.53;5276499;26;98566;-72
2024/04/16 08:51:00;;;;;;;;;3.00;2.00;;;;;-143.90;66.72;74359.81;5278822;26;98227;-73
2024/04/16 08:53:28;;;;;;;;;2.00;2.00;;;;;-143.90;67.37;74370.16;5278913;26;104494;-73
2024/04/16 08:55:55;;;;;;;;;2.75;2.75;;;;;-143.90;67.85;74366.00;5278467;26;97948;-73
2024/04/16 08:58:22;;;;;;;;;4.00;3.25;;;;;-143.90;67.14;74386.69;5288962;26;97852;-73
2024/04/16 09:00:50;;;;;;;;;2.50;2.50;;;;;-143.90;69.64;74380.47;5280209;26;98368;-73
2024/04/16 09:03:18;;;;;;;;;3.75;3.75;;;;;-143.90;70.36;74386.69;5277180;26;99811;-73
2024/04/16 09:05:46;;;;;;;;;3.00;3.00;;;;;-143.90;70.38;74368.09;5267099;26;97836;-73
2024/04/16 09:08:17;;;;;;;;;1.00;1.00;;;;;-143.90;69.86;74339.16;5275383;26;98207;-73
2024/04/16 09:10:44;;;;;;;;;1.25;1.00;;;;;-143.90;69.75;74314.34;5283750;26;98582;-73
2024/04/16 09:13:12;;;;;;;;;6.75;3.00;;;;;-143.90;69.15;74279.22;5272602;26;99720;-73
2024/04/16 09:15:40;;;;;;;;;2.00;1.25;;;;;-143.90;67.20;74246.13;5276297;26;98367;-73
2024/04/16 09:18:07;;;;;;;;;2.75;2.50;;;;;-143.90;64.53;74252.34;5272230;26;98074;-72
2024/04/16 09:20:34;;;;;;;;;2.00;2.00;;;;;-143.90;65.22;74233.72;5279608;26;98505;-73
2024/04/16 09:23:04;;;;;;;;;4.00;2.00;;;;;-143.90;66.16;74239.94;5268752;26;99776;-72
2024/04/16 09:25:38;;;;;;;;;3.00;3.00;;;;;-143.90;64.13;74275.06;5269483;26;98409;-73
2024/04/16 09:28:05;;;;;;;;;2.00;2.00;;;;;-143.90;61.60;74285.41;5270139;26;98498;-73
2024/04/16 09:30:32;;;;;;;;;2.00;2.00;;;;;-143.90;60.75;74277.13;5276504;26;98143;-72
2024/04/16 09:33:00;;;;;;;;;1.75;1.75;;;;;-143.90;56.04;74264.72;5280177;26;99731;-71
2024/04/16 09:35:29;;;;;;;;;1.00;0.75;;;;;-143.90;52.76;74227.53;5279043;26;99150;-72
2024/04/16 09:37:59;;;;;;;;;1.00;1.00;;;;;-143.90;52.92;74206.88;5267692;26;98419;-72
2024/04/16 09:40:29;;;;;;;;;0.00;0.00;;;;;-143.90;48.81;74229.59;5281361;26;98406;-73
2024/04/16 09:42:57;;;;;;;;;1.00;1.00;;;;;-143.90;47.24;74258.53;5287209;26;104623;-72
2024/04/16 09:45:30;;;;;;;;;0.50;0.50;;;;;-143.90;47.98;74242.00;5278780;26;99745;-72
2024/04/16 09:47:58;;;;;;;;;1.00;1.00;;;;;-143.90;47.44;74248.19;5267185;26;100085;-73
2024/04/16 09:50:27;;;;;;;;;0.00;0.00;;;;;-143.90;47.36;74233.72;5270814;26;100563;-73
2024/04/16 09:53:17;;;;;;;;;1.50;1.00;;;;;-143.90;45.20;74260.59;5283761;26;106156;-72
2024/04/16 09:55:46;;;;;;;;;1.00;1.00;;;;;-143.90;46.04;74248.19;5267835;26;98269;-72
2024/04/16 09:58:16;;;;;;;;;1.00;1.00;;;;;-143.90;45.57;74246.13;5276027;26;103972;-73
2024/04/16 10:00:44;;;;;;;;;1.00;1.00;;;;;-143.90;45.09;74237.88;5250220;26;98533;-73
2024/04/16 10:03:11;;;;;;;;;1.25;1.00;;;;;-143.90;44.88;74223.41;5276486;26;99872;-72
2024/04/16 10:05:38;;;;;;;;;1.00;1.00;;;;;-143.90;45.57;74204.78;5273565;26;97789;-73
2024/04/16 10:08:06;;;;;;;;;0.50;0.50;;;;;-143.90;44.49;74221.31;5264724;26;97897;-72
2024/04/16 10:10:33;;;;;;;;;0.50;0.50;;;;;-143.90;43.74;74221.31;5279772;26;98302;-72
2024/04/16 10:13:01;;;;;;;;;2.00;1.00;;;;;-143.90;43.89;74242.00;5275429;26;99944;-72
2024/04/16 10:15:28;;;;;;;;;0.75;0.50;;;;;-143.90;43.65;74275.06;5275929;26;97955;-72
2024/04/16 10:17:56;;;;;;;;;1.25;1.00;;;;;-143.90;45.26;74293.66;5265332;26;97976;-72
2024/04/16 10:20:28;;;;;;;;;1.00;1.00;;;;;-143.90;45.27;74316.41;5283037;26;98376;-72
2024/04/16 10:22:59;;;;;;;;;0.00;0.00;;;;;-143.90;45.59;74308.13;5277083;26;104799;-71
2024/04/16 10:25:28;;;;;;;;;1.00;1.00;;;;;-143.90;45.96;74312.28;5289599;26;97966;-72
2024/04/16 10:27:58;;;;;;;;;1.75;1.00;;;;;-143.90;46.09;74287.47;5266369;26;98357;-72
2024/04/16 10:30:28;;;;;;;;;1.00;1.00;;;;;-143.90;45.64;74264.72;5279545;26;98328;-72
2024/04/16 10:32:56;;;;;;;;;2.00;2.00;;;;;-143.90;45.63;74244.06;5276236;26;108122;-72
2024/04/16 10:35:23;;;;;;;;;2.00;2.00;;;;;-143.90;45.22;74248.19;5264702;26;97936;-72
2024/04/16 10:37:50;;;;;;;;;2.00;1.00;;;;;-143.90;45.55;74229.59;5265097;26;97876;-73
2024/04/16 10:40:31;;;;;;;;;2.00;1.00;;;;;-143.90;45.18;74194.47;5272968;25;97750;-72
2024/04/16 10:43:00;;;;;;;;;1.00;1.00;;;;;-143.90;45.07;74165.53;5275811;26;105009;-72
2024/04/16 10:45:30;;;;;;;;;1.00;1.00;;;;;-143.90;45.28;74136.59;5279747;26;98044;-73
2024/04/16 10:47:58;;;;;;;;;0.00;0.00;;;;;-143.90;44.97;74099.38;5263537;26;98982;-73
2024/04/16 10:50:25;;;;;;;;;2.00;1.00;;;;;-143.90;44.27;74084.91;5282339;26;98134;-73
2024/04/16 10:52:52;;;;;;;;;2.75;2.00;;;;;-143.90;45.10;74070.44;5269349;26;99733;-72
2024/04/16 10:55:20;;;;;;;;;1.00;1.00;;;;;-143.90;44.91;74051.84;5262545;26;99735;-73
2024/04/16 10:57:49;;;;;;;;;1.75;1.00;;;;;-143.90;45.13;74024.97;5273874;26;100128;-73
2024/04/16 11:00:17;;;;;;;;;3.00;2.00;;;;;-143.90;45.34;74022.91;5282227;26;97950;-73
2024/04/16 11:02:45;;;;;;;;;3.00;3.00;;;;;-143.90;45.22;74006.38;5274811;26;99810;-73
2024/04/16 11:05:17;;;;;;;;;4.25;3.25;;;;;-143.90;45.41;74012.56;5282614;26;98240;-74
2024/04/16 11:07:44;;;;;;;;;2.75;2.00;;;;;-143.90;45.30;73996.03;5277794;26;98515;-73
2024/04/16 11:10:11;;;;;;;;;0.50;0.25;;;;;-143.90;45.71;73971.25;5275454;26;99251;-73
2024/04/16 11:12:39;;;;;;;;;3.00;3.00;;;;;-143.90;45.77;73940.25;5279648;26;99907;-73